sensor_id;sensor_type;location;lat;lon;timestamp;pressure;altitude;pressure_sealevel;temperature;humidity
10518;BME280;5307;42.548;22.968;2023-08-30T00:01:55;92972.91;;;20.26;86.13
10518;BME280;5307;42.548;22.968;2023-08-30T00:04:22;92976.44;;;20.13;85.82
10518;BME280;5307;42.548;22.968;2023-08-30T00:06:50;92967.44;;;20.07;88.17
10518;BME280;5307;42.548;22.968;2023-08-30T00:09:16;92968.56;;;20.31;85.55
10518;BME280;5307;42.548;22.968;2023-08-30T00:11:43;92957.22;;;20.15;84.48
10518;BME280;5307;42.548;22.968;2023-08-30T00:14:12;92965.34;;;20.13;84.14
10518;BME280;5307;42.548;22.968;2023-08-30T00:16:39;92967.25;;;20.19;82.66
10518;BME280;5307;42.548;22.968;2023-08-30T00:19:07;92967.66;;;20.09;82.20
10518;BME280;5307;42.548;22.968;2023-08-30T00:21:34;92972.81;;;19.73;83.10
10518;BME280;5307;42.548;22.968;2023-08-30T00:24:02;92980.44;;;20.12;82.48
10518;BME280;5307;42.548;22.968;2023-08-30T00:26:30;92982.44;;;19.85;81.74
10518;BME280;5307;42.548;22.968;2023-08-30T00:28:57;92975.75;;;20.07;83.00
10518;BME280;5307;42.548;22.968;2023-08-30T00:31:23;92981.66;;;20.17;84.52
10518;BME280;5307;42.548;22.968;2023-08-30T00:33:50;92981.94;;;20.00;85.41
10518;BME280;5307;42.548;22.968;2023-08-30T00:36:17;92972.66;;;20.11;86.77
10518;BME280;5307;42.548;22.968;2023-08-30T00:38:44;92981.19;;;20.00;86.89
10518;BME280;5307;42.548;22.968;2023-08-30T00:41:12;92981.41;;;20.02;89.22
10518;BME280;5307;42.548;22.968;2023-08-30T00:43:39;92984.75;;;19.31;93.58
10518;BME280;5307;42.548;22.968;2023-08-30T00:46:06;92970.84;;;18.98;99.81
10518;BME280;5307;42.548;22.968;2023-08-30T00:48:33;92977.19;;;18.93;100.00
10518;BME280;5307;42.548;22.968;2023-08-30T00:50:59;92987.59;;;19.06;100.00
10518;BME280;5307;42.548;22.968;2023-08-30T00:53:26;92989.63;;;19.06;100.00
10518;BME280;5307;42.548;22.968;2023-08-30T00:55:53;92993.44;;;19.03;100.00
10518;BME280;5307;42.548;22.968;2023-08-30T00:58:21;92989.00;;;19.13;100.00
10518;BME280;5307;42.548;22.968;2023-08-30T01:00:48;92984.97;;;18.95;100.00
10518;BME280;5307;42.548;22.968;2023-08-30T01:03:16;92992.38;;;19.06;100.00
10518;BME280;5307;42.548;22.968;2023-08-30T01:05:43;92986.09;;;18.86;100.00
10518;BME280;5307;42.548;22.968;2023-08-30T01:08:09;92991.03;;;18.93;100.00
10518;BME280;5307;42.548;22.968;2023-08-30T01:10:52;93006.25;;;18.57;100.00
10518;BME280;5307;42.548;22.968;2023-08-30T01:13:22;93016.56;;;18.56;100.00
10518;BME280;5307;42.548;22.968;2023-08-30T01:15:51;93022.59;;;19.04;100.00
10518;BME280;5307;42.548;22.968;2023-08-30T01:18:22;93017.75;;;19.28;100.00
10518;BME280;5307;42.548;22.968;2023-08-30T01:20:52;93013.78;;;19.05;100.00
10518;BME280;5307;42.548;22.968;2023-08-30T01:23:29;93014.31;;;19.04;100.00
10518;BME280;5307;42.548;22.968;2023-08-30T01:26:08;93018.78;;;19.07;100.00
10518;BME280;5307;42.548;22.968;2023-08-30T01:28:38;93021.19;;;19.16;100.00
10518;BME280;5307;42.548;22.968;2023-08-30T01:31:06;93022.88;;;19.00;100.00
10518;BME280;5307;42.548;22.968;2023-08-30T01:33:35;93021.56;;;18.63;100.00
10518;BME280;5307;42.548;22.968;2023-08-30T01:36:03;93016.19;;;18.22;100.00
10518;BME280;5307;42.548;22.968;2023-08-30T01:38:32;93020.56;;;18.36;100.00
10518;BME280;5307;42.548;22.968;2023-08-30T01:41:00;93015.00;;;18.66;100.00
10518;BME280;5307;42.548;22.968;2023-08-30T01:43:29;93018.56;;;18.61;100.00
10518;BME280;5307;42.548;22.968;2023-08-30T01:45:59;93016.78;;;18.64;100.00
10518;BME280;5307;42.548;22.968;2023-08-30T01:48:27;93016.94;;;18.47;100.00
10518;BME280;5307;42.548;22.968;2023-08-30T01:50:55;93017.91;;;18.50;100.00
10518;BME280;5307;42.548;22.968;2023-08-30T01:53:25;93016.88;;;18.53;100.00
10518;BME280;5307;42.548;22.968;2023-08-30T01:55:53;93003.53;;;18.32;100.00
10518;BME280;5307;42.548;22.968;2023-08-30T01:58:20;93004.09;;;18.50;100.00
10518;BME280;5307;42.548;22.968;2023-08-30T02:00:47;93006.78;;;18.55;100.00
10518;BME280;5307;42.548;22.968;2023-08-30T02:03:15;93006.25;;;18.57;100.00
10518;BME280;5307;42.548;22.968;2023-08-30T02:05:49;93003.44;;;18.62;100.00
10518;BME280;5307;42.548;22.968;2023-08-30T02:08:20;92999.16;;;18.67;100.00
10518;BME280;5307;42.548;22.968;2023-08-30T02:10:52;92981.16;;;18.55;100.00
10518;BME280;5307;42.548;22.968;2023-08-30T02:13:25;92994.19;;;18.60;100.00
10518;BME280;5307;42.548;22.968;2023-08-30T02:15:55;92985.09;;;18.65;100.00
10518;BME280;5307;42.548;22.968;2023-08-30T02:18:23;92983.88;;;18.60;100.00
10518;BME280;5307;42.548;22.968;2023-08-30T02:20:50;92980.09;;;18.82;100.00
10518;BME280;5307;42.548;22.968;2023-08-30T02:23:17;92977.31;;;18.63;100.00
10518;BME280;5307;42.548;22.968;2023-08-30T02:25:44;92978.25;;;18.47;100.00
10518;BME280;5307;42.548;22.968;2023-08-30T02:28:11;92977.06;;;18.61;100.00
10518;BME280;5307;42.548;22.968;2023-08-30T02:30:37;92971.72;;;18.69;100.00
10518;BME280;5307;42.548;22.968;2023-08-30T02:33:04;92977.53;;;18.65;100.00
10518;BME280;5307;42.548;22.968;2023-08-30T02:35:32;92972.53;;;18.64;100.00
10518;BME280;5307;42.548;22.968;2023-08-30T02:37:59;92969.47;;;18.67;100.00
10518;BME280;5307;42.548;22.968;2023-08-30T02:40:30;92976.09;;;18.59;100.00
10518;BME280;5307;42.548;22.968;2023-08-30T02:42:57;92978.06;;;18.64;100.00
10518;BME280;5307;42.548;22.968;2023-08-30T02:45:23;92975.06;;;18.37;100.00
10518;BME280;5307;42.548;22.968;2023-08-30T02:47:50;92995.75;;;18.31;100.00
10518;BME280;5307;42.548;22.968;2023-08-30T02:50:17;93005.19;;;18.41;100.00
10518;BME280;5307;42.548;22.968;2023-08-30T02:52:45;92997.59;;;18.47;100.00
10518;BME280;5307;42.548;22.968;2023-08-30T02:55:12;92985.31;;;18.43;100.00
10518;BME280;5307;42.548;22.968;2023-08-30T02:57:38;92975.13;;;18.32;100.00
10518;BME280;5307;42.548;22.968;2023-08-30T03:00:06;92972.22;;;18.43;100.00
10518;BME280;5307;42.548;22.968;2023-08-30T03:02:34;92967.06;;;18.58;100.00
10518;BME280;5307;42.548;22.968;2023-08-30T03:05:01;92965.84;;;18.54;100.00
10518;BME280;5307;42.548;22.968;2023-08-30T03:07:29;92955.22;;;18.58;100.00
10518;BME280;5307;42.548;22.968;2023-08-30T03:09:57;92961.41;;;18.69;100.00
10518;BME280;5307;42.548;22.968;2023-08-30T03:12:24;92974.03;;;18.65;100.00
10518;BME280;5307;42.548;22.968;2023-08-30T03:14:51;92964.63;;;18.74;100.00
10518;BME280;5307;42.548;22.968;2023-08-30T03:17:18;92961.13;;;18.24;100.00
10518;BME280;5307;42.548;22.968;2023-08-30T03:19:45;92963.47;;;18.39;100.00
10518;BME280;5307;42.548;22.968;2023-08-30T03:22:11;92955.47;;;18.60;100.00
10518;BME280;5307;42.548;22.968;2023-08-30T03:24:38;92953.63;;;18.44;100.00
10518;BME280;5307;42.548;22.968;2023-08-30T03:27:06;92951.22;;;18.34;100.00
10518;BME280;5307;42.548;22.968;2023-08-30T03:29:33;92951.78;;;18.27;100.00
10518;BME280;5307;42.548;22.968;2023-08-30T03:32:00;92947.84;;;18.23;100.00
10518;BME280;5307;42.548;22.968;2023-08-30T03:34:27;92955.72;;;18.37;100.00
10518;BME280;5307;42.548;22.968;2023-08-30T03:36:54;92958.78;;;18.09;100.00
10518;BME280;5307;42.548;22.968;2023-08-30T03:39:20;92971.16;;;18.27;100.00
10518;BME280;5307;42.548;22.968;2023-08-30T03:41:47;92976.56;;;18.14;100.00
10518;BME280;5307;42.548;22.968;2023-08-30T03:44:16;92993.31;;;18.22;100.00
10518;BME280;5307;42.548;22.968;2023-08-30T03:46:42;93020.03;;;18.62;100.00
10518;BME280;5307;42.548;22.968;2023-08-30T03:49:09;93059.31;;;18.55;100.00
10518;BME280;5307;42.548;22.968;2023-08-30T03:51:36;93067.34;;;18.59;100.00
10518;BME280;5307;42.548;22.968;2023-08-30T03:54:03;93040.97;;;18.33;100.00
10518;BME280;5307;42.548;22.968;2023-08-30T03:56:30;93000.00;;;18.07;100.00
10518;BME280;5307;42.548;22.968;2023-08-30T03:58:57;92973.13;;;18.32;100.00
10518;BME280;5307;42.548;22.968;2023-08-30T04:01:25;92981.63;;;18.34;100.00
10518;BME280;5307;42.548;22.968;2023-08-30T04:03:51;93005.50;;;18.56;100.00
10518;BME280;5307;42.548;22.968;2023-08-30T04:06:18;93030.53;;;18.69;100.00
10518;BME280;5307;42.548;22.968;2023-08-30T04:08:47;93053.13;;;18.49;100.00
10518;BME280;5307;42.548;22.968;2023-08-30T04:11:13;93068.97;;;18.49;100.00
10518;BME280;5307;42.548;22.968;2023-08-30T04:13:40;93080.19;;;18.56;100.00
10518;BME280;5307;42.548;22.968;2023-08-30T04:16:07;93074.88;;;18.34;100.00
10518;BME280;5307;42.548;22.968;2023-08-30T04:18:35;93062.81;;;18.01;100.00
10518;BME280;5307;42.548;22.968;2023-08-30T04:21:02;93066.16;;;17.94;100.00
10518;BME280;5307;42.548;22.968;2023-08-30T04:23:29;93066.97;;;18.19;100.00
10518;BME280;5307;42.548;22.968;2023-08-30T04:25:56;93069.88;;;18.02;100.00
10518;BME280;5307;42.548;22.968;2023-08-30T04:28:22;93061.06;;;18.04;100.00
10518;BME280;5307;42.548;22.968;2023-08-30T04:30:49;93059.44;;;17.90;100.00
10518;BME280;5307;42.548;22.968;2023-08-30T04:33:19;93057.78;;;17.75;100.00
10518;BME280;5307;42.548;22.968;2023-08-30T04:35:52;93054.28;;;17.69;100.00
10518;BME280;5307;42.548;22.968;2023-08-30T04:38:19;93069.63;;;18.00;100.00
10518;BME280;5307;42.548;22.968;2023-08-30T04:40:46;93072.06;;;18.09;100.00
10518;BME280;5307;42.548;22.968;2023-08-30T04:43:15;93063.59;;;18.02;100.00
10518;BME280;5307;42.548;22.968;2023-08-30T04:45:42;93059.28;;;18.06;100.00
10518;BME280;5307;42.548;22.968;2023-08-30T04:48:08;93069.66;;;18.25;100.00
10518;BME280;5307;42.548;22.968;2023-08-30T04:50:35;93073.53;;;18.40;100.00
10518;BME280;5307;42.548;22.968;2023-08-30T04:53:04;93074.88;;;18.34;100.00
10518;BME280;5307;42.548;22.968;2023-08-30T04:55:31;93087.75;;;18.26;100.00
10518;BME280;5307;42.548;22.968;2023-08-30T04:57:58;93084.91;;;18.07;100.00
10518;BME280;5307;42.548;22.968;2023-08-30T05:00:24;93090.00;;;18.27;100.00
10518;BME280;5307;42.548;22.968;2023-08-30T05:02:51;93076.53;;;18.18;100.00
10518;BME280;5307;42.548;22.968;2023-08-30T05:05:18;93069.34;;;18.34;100.00
10518;BME280;5307;42.548;22.968;2023-08-30T05:07:45;93071.13;;;18.31;100.00
10518;BME280;5307;42.548;22.968;2023-08-30T05:10:13;93064.00;;;18.42;100.00
10518;BME280;5307;42.548;22.968;2023-08-30T05:12:40;93079.91;;;18.60;100.00
10518;BME280;5307;42.548;22.968;2023-08-30T05:15:09;93084.38;;;18.68;100.00
10518;BME280;5307;42.548;22.968;2023-08-30T05:17:36;93083.84;;;18.70;100.00
10518;BME280;5307;42.548;22.968;2023-08-30T05:20:04;93085.03;;;18.50;100.00
10518;BME280;5307;42.548;22.968;2023-08-30T05:22:31;93083.50;;;18.79;100.00
10518;BME280;5307;42.548;22.968;2023-08-30T05:24:58;93085.78;;;18.99;100.00
10518;BME280;5307;42.548;22.968;2023-08-30T05:27:26;93072.66;;;18.81;100.00
10518;BME280;5307;42.548;22.968;2023-08-30T05:29:53;93070.66;;;18.82;100.00
10518;BME280;5307;42.548;22.968;2023-08-30T05:32:21;93065.00;;;19.12;100.00
10518;BME280;5307;42.548;22.968;2023-08-30T05:34:48;93070.28;;;19.53;100.00
10518;BME280;5307;42.548;22.968;2023-08-30T05:37:15;93066.63;;;19.64;100.00
10518;BME280;5307;42.548;22.968;2023-08-30T05:39:41;93071.16;;;19.42;100.00
10518;BME280;5307;42.548;22.968;2023-08-30T05:42:08;93074.47;;;19.78;100.00
10518;BME280;5307;42.548;22.968;2023-08-30T05:44:36;93072.41;;;19.98;100.00
10518;BME280;5307;42.548;22.968;2023-08-30T05:47:04;93075.75;;;19.77;100.00
10518;BME280;5307;42.548;22.968;2023-08-30T05:49:30;93072.81;;;19.32;100.00
10518;BME280;5307;42.548;22.968;2023-08-30T05:51:57;93080.44;;;19.26;100.00
10518;BME280;5307;42.548;22.968;2023-08-30T05:54:24;93093.72;;;19.33;100.00
10518;BME280;5307;42.548;22.968;2023-08-30T05:56:54;93092.00;;;19.68;100.00
10518;BME280;5307;42.548;22.968;2023-08-30T05:59:21;93087.53;;;19.65;100.00
10518;BME280;5307;42.548;22.968;2023-08-30T06:01:49;93090.19;;;19.89;100.00
10518;BME280;5307;42.548;22.968;2023-08-30T06:04:16;93082.81;;;20.10;100.00
10518;BME280;5307;42.548;22.968;2023-08-30T06:06:43;93089.47;;;20.21;100.00
10518;BME280;5307;42.548;22.968;2023-08-30T06:09:10;93091.75;;;20.03;100.00
10518;BME280;5307;42.548;22.968;2023-08-30T06:11:38;93088.56;;;19.80;100.00
10518;BME280;5307;42.548;22.968;2023-08-30T06:14:04;93098.34;;;20.00;100.00
10518;BME280;5307;42.548;22.968;2023-08-30T06:16:31;93091.53;;;20.33;100.00
10518;BME280;5307;42.548;22.968;2023-08-30T06:19:00;93086.50;;;20.32;100.00
10518;BME280;5307;42.548;22.968;2023-08-30T06:21:26;93093.13;;;20.29;99.63
10518;BME280;5307;42.548;22.968;2023-08-30T06:23:53;93094.34;;;20.14;96.99
10518;BME280;5307;42.548;22.968;2023-08-30T06:26:20;93093.63;;;19.95;97.15
10518;BME280;5307;42.548;22.968;2023-08-30T06:28:47;93097.53;;;19.68;99.54
10518;BME280;5307;42.548;22.968;2023-08-30T06:31:14;93093.63;;;19.95;99.86
10518;BME280;5307;42.548;22.968;2023-08-30T06:33:40;93099.59;;;20.50;98.89
10518;BME280;5307;42.548;22.968;2023-08-30T06:36:09;93087.88;;;20.57;94.23
10518;BME280;5307;42.548;22.968;2023-08-30T06:38:36;93093.69;;;20.99;91.88
10518;BME280;5307;42.548;22.968;2023-08-30T06:41:03;93091.97;;;21.36;90.39
10518;BME280;5307;42.548;22.968;2023-08-30T06:43:30;93083.75;;;21.77;88.44
10518;BME280;5307;42.548;22.968;2023-08-30T06:45:57;93077.75;;;21.86;86.53
10518;BME280;5307;42.548;22.968;2023-08-30T06:48:24;93084.91;;;21.48;83.49
10518;BME280;5307;42.548;22.968;2023-08-30T06:50:51;93086.50;;;21.56;86.37
10518;BME280;5307;42.548;22.968;2023-08-30T06:53:19;93086.34;;;21.75;83.49
10518;BME280;5307;42.548;22.968;2023-08-30T06:55:47;93089.66;;;21.26;83.93
10518;BME280;5307;42.548;22.968;2023-08-30T06:58:22;93087.44;;;21.59;85.05
10518;BME280;5307;42.548;22.968;2023-08-30T07:00:49;93087.28;;;21.30;84.61
10518;BME280;5307;42.548;22.968;2023-08-30T07:03:16;93077.50;;;22.11;83.26
10518;BME280;5307;42.548;22.968;2023-08-30T07:05:43;93081.72;;;21.78;84.50
10518;BME280;5307;42.548;22.968;2023-08-30T07:08:09;93079.72;;;21.65;86.33
10518;BME280;5307;42.548;22.968;2023-08-30T07:10:38;93080.44;;;21.18;85.79
10518;BME280;5307;42.548;22.968;2023-08-30T07:13:04;93084.38;;;21.36;87.06
10518;BME280;5307;42.548;22.968;2023-08-30T07:15:35;93083.03;;;21.77;85.57
10518;BME280;5307;42.548;22.968;2023-08-30T07:18:03;93091.66;;;21.86;85.08
10518;BME280;5307;42.548;22.968;2023-08-30T07:20:30;93083.66;;;22.17;84.21
10518;BME280;5307;42.548;22.968;2023-08-30T07:22:56;93083.75;;;22.74;80.89
10518;BME280;5307;42.548;22.968;2023-08-30T07:25:23;93087.81;;;22.44;80.43
10518;BME280;5307;42.548;22.968;2023-08-30T07:27:51;93081.56;;;23.01;81.20
10518;BME280;5307;42.548;22.968;2023-08-30T07:30:18;93080.94;;;22.66;79.06
10518;BME280;5307;42.548;22.968;2023-08-30T07:32:45;93075.81;;;23.35;77.29
10518;BME280;5307;42.548;22.968;2023-08-30T07:35:12;93080.28;;;23.66;77.01
10518;BME280;5307;42.548;22.968;2023-08-30T07:37:39;93075.03;;;23.27;75.96
10518;BME280;5307;42.548;22.968;2023-08-30T07:40:06;93086.47;;;23.16;74.30
10518;BME280;5307;42.548;22.968;2023-08-30T07:42:34;93074.78;;;23.97;75.67
10518;BME280;5307;42.548;22.968;2023-08-30T07:45:02;93075.34;;;23.95;73.92
10518;BME280;5307;42.548;22.968;2023-08-30T07:47:29;93084.78;;;23.85;72.41
10518;BME280;5307;42.548;22.968;2023-08-30T07:49:56;93081.16;;;23.61;69.90
10518;BME280;5307;42.548;22.968;2023-08-30T07:52:23;93087.19;;;23.81;69.88
10518;BME280;5307;42.548;22.968;2023-08-30T07:54:50;93076.94;;;24.42;67.73
10518;BME280;5307;42.548;22.968;2023-08-30T07:57:16;93078.44;;;25.20;67.20
10518;BME280;5307;42.548;22.968;2023-08-30T07:59:43;93077.38;;;25.63;66.10
10518;BME280;5307;42.548;22.968;2023-08-30T08:02:11;93075.81;;;25.14;64.97
10518;BME280;5307;42.548;22.968;2023-08-30T08:04:38;93084.53;;;25.33;65.18
10518;BME280;5307;42.548;22.968;2023-08-30T08:07:05;93091.69;;;25.82;67.79
10518;BME280;5307;42.548;22.968;2023-08-30T08:09:32;93084.22;;;24.68;62.55
10518;BME280;5307;42.548;22.968;2023-08-30T08:11:59;93085.31;;;24.42;63.27
10518;BME280;5307;42.548;22.968;2023-08-30T08:14:26;93097.41;;;24.75;62.47
10518;BME280;5307;42.548;22.968;2023-08-30T08:16:53;93087.19;;;24.55;61.16
10518;BME280;5307;42.548;22.968;2023-08-30T08:19:21;93088.28;;;24.98;64.41
10518;BME280;5307;42.548;22.968;2023-08-30T08:21:48;93103.34;;;24.49;63.92
10518;BME280;5307;42.548;22.968;2023-08-30T08:24:15;93099.00;;;24.10;64.02
10518;BME280;5307;42.548;22.968;2023-08-30T08:26:42;93094.63;;;24.83;64.94
10518;BME280;5307;42.548;22.968;2023-08-30T08:29:09;93095.56;;;24.63;64.53
10518;BME280;5307;42.548;22.968;2023-08-30T08:31:36;93088.88;;;24.66;60.51
10518;BME280;5307;42.548;22.968;2023-08-30T08:34:08;93077.97;;;25.46;58.39
10518;BME280;5307;42.548;22.968;2023-08-30T08:36:37;93083.09;;;25.80;60.32
10518;BME280;5307;42.548;22.968;2023-08-30T08:39:04;93077.69;;;24.88;58.90
10518;BME280;5307;42.548;22.968;2023-08-30T08:41:35;93087.25;;;25.64;58.04
10518;BME280;5307;42.548;22.968;2023-08-30T08:44:04;93088.47;;;25.23;55.41
10518;BME280;5307;42.548;22.968;2023-08-30T08:46:32;93089.47;;;26.96;55.57
10518;BME280;5307;42.548;22.968;2023-08-30T08:49:01;93076.03;;;26.44;55.82
10518;BME280;5307;42.548;22.968;2023-08-30T08:51:32;93084.56;;;26.54;55.88
10518;BME280;5307;42.548;22.968;2023-08-30T08:54:03;93071.03;;;26.68;53.70
10518;BME280;5307;42.548;22.968;2023-08-30T08:56:30;93078.09;;;26.44;50.27
10518;BME280;5307;42.548;22.968;2023-08-30T08:58:57;93070.38;;;25.31;52.27
10518;BME280;5307;42.548;22.968;2023-08-30T09:01:24;93076.59;;;25.07;50.52
10518;BME280;5307;42.548;22.968;2023-08-30T09:03:51;93069.78;;;25.48;50.77
10518;BME280;5307;42.548;22.968;2023-08-30T09:06:18;93078.19;;;25.96;49.78
10518;BME280;5307;42.548;22.968;2023-08-30T09:08:45;93072.03;;;25.90;48.60
10518;BME280;5307;42.548;22.968;2023-08-30T09:11:13;93078.91;;;25.49;53.34
10518;BME280;5307;42.548;22.968;2023-08-30T09:13:42;93079.34;;;25.85;49.54
10518;BME280;5307;42.548;22.968;2023-08-30T09:16:12;93077.66;;;25.34;54.50
10518;BME280;5307;42.548;22.968;2023-08-30T09:18:40;93077.31;;;26.18;53.74
10518;BME280;5307;42.548;22.968;2023-08-30T09:21:07;93076.53;;;26.25;50.76
10518;BME280;5307;42.548;22.968;2023-08-30T09:23:34;93067.34;;;26.00;48.84
10518;BME280;5307;42.548;22.968;2023-08-30T09:26:02;93065.16;;;26.23;48.54
10518;BME280;5307;42.548;22.968;2023-08-30T09:28:30;93068.72;;;26.74;47.81
10518;BME280;5307;42.548;22.968;2023-08-30T09:30:59;93063.06;;;27.06;49.30
10518;BME280;5307;42.548;22.968;2023-08-30T09:33:30;93059.97;;;27.71;47.09
10518;BME280;5307;42.548;22.968;2023-08-30T09:35:58;93064.44;;;26.98;46.42
10518;BME280;5307;42.548;22.968;2023-08-30T09:38:25;93064.41;;;26.55;47.07
10518;BME280;5307;42.548;22.968;2023-08-30T09:41:01;93066.28;;;27.03;47.13
10518;BME280;5307;42.548;22.968;2023-08-30T09:43:30;93052.19;;;27.62;46.91
10518;BME280;5307;42.548;22.968;2023-08-30T09:45:58;93047.69;;;27.67;46.74
10518;BME280;5307;42.548;22.968;2023-08-30T09:48:28;93056.03;;;26.73;46.30
10518;BME280;5307;42.548;22.968;2023-08-30T09:50:58;93047.03;;;26.99;47.55
10518;BME280;5307;42.548;22.968;2023-08-30T09:53:25;93043.00;;;26.92;46.26
10518;BME280;5307;42.548;22.968;2023-08-30T09:55:53;93048.69;;;27.02;46.46
10518;BME280;5307;42.548;22.968;2023-08-30T09:58:21;93049.91;;;27.68;47.21
10518;BME280;5307;42.548;22.968;2023-08-30T10:00:49;93045.22;;;28.25;47.27
10518;BME280;5307;42.548;22.968;2023-08-30T10:03:17;93042.94;;;28.14;45.18
10518;BME280;5307;42.548;22.968;2023-08-30T10:05:44;93034.81;;;28.08;45.61
10518;BME280;5307;42.548;22.968;2023-08-30T10:08:14;93032.47;;;27.87;44.86
10518;BME280;5307;42.548;22.968;2023-08-30T10:10:41;93038.16;;;26.68;46.07
10518;BME280;5307;42.548;22.968;2023-08-30T10:13:08;93040.00;;;26.48;45.47
10518;BME280;5307;42.548;22.968;2023-08-30T10:15:39;93035.72;;;27.49;45.25
10518;BME280;5307;42.548;22.968;2023-08-30T10:18:09;93034.47;;;27.77;43.83
10518;BME280;5307;42.548;22.968;2023-08-30T10:20:37;93022.47;;;28.48;46.51
10518;BME280;5307;42.548;22.968;2023-08-30T10:23:04;93030.78;;;28.65;46.83
10518;BME280;5307;42.548;22.968;2023-08-30T10:25:32;93029.56;;;26.91;44.11
10518;BME280;5307;42.548;22.968;2023-08-30T10:28:00;93025.41;;;27.51;43.70
10518;BME280;5307;42.548;22.968;2023-08-30T10:30:27;93021.13;;;28.49;44.74
10518;BME280;5307;42.548;22.968;2023-08-30T10:32:54;93021.34;;;27.62;45.27
10518;BME280;5307;42.548;22.968;2023-08-30T10:35:25;93021.72;;;28.47;45.61
10518;BME280;5307;42.548;22.968;2023-08-30T10:37:55;93013.50;;;27.78;43.69
10518;BME280;5307;42.548;22.968;2023-08-30T10:40:22;93019.13;;;27.78;45.60
10518;BME280;5307;42.548;22.968;2023-08-30T10:42:59;93015.75;;;27.28;43.94
10518;BME280;5307;42.548;22.968;2023-08-30T10:45:26;93022.22;;;27.82;43.43
10518;BME280;5307;42.548;22.968;2023-08-30T10:47:54;93018.47;;;27.97;43.43
10518;BME280;5307;42.548;22.968;2023-08-30T10:50:29;93017.16;;;28.25;42.75
10518;BME280;5307;42.548;22.968;2023-08-30T10:52:57;93008.34;;;28.75;43.86
10518;BME280;5307;42.548;22.968;2023-08-30T10:55:24;93003.19;;;28.81;43.26
10518;BME280;5307;42.548;22.968;2023-08-30T10:58:01;93011.72;;;28.27;42.26
10518;BME280;5307;42.548;22.968;2023-08-30T11:00:30;93002.94;;;28.50;45.20
10518;BME280;5307;42.548;22.968;2023-08-30T11:02:57;93006.75;;;27.46;40.39
10518;BME280;5307;42.548;22.968;2023-08-30T11:05:26;93001.03;;;27.54;42.58
10518;BME280;5307;42.548;22.968;2023-08-30T11:07:54;93006.16;;;28.36;43.84
10518;BME280;5307;42.548;22.968;2023-08-30T11:10:21;93005.31;;;28.17;40.94
10518;BME280;5307;42.548;22.968;2023-08-30T11:12:49;92996.53;;;28.03;43.16
10518;BME280;5307;42.548;22.968;2023-08-30T11:15:18;93004.78;;;27.22;37.83
10518;BME280;5307;42.548;22.968;2023-08-30T11:17:46;92998.97;;;27.72;38.21
10518;BME280;5307;42.548;22.968;2023-08-30T11:20:14;92998.81;;;28.24;38.48
10518;BME280;5307;42.548;22.968;2023-08-30T11:22:43;92991.81;;;28.42;38.86
10518;BME280;5307;42.548;22.968;2023-08-30T11:25:13;92987.06;;;28.81;39.53
10518;BME280;5307;42.548;22.968;2023-08-30T11:27:42;92987.88;;;28.55;38.68
10518;BME280;5307;42.548;22.968;2023-08-30T11:30:10;92991.94;;;28.34;38.48
10518;BME280;5307;42.548;22.968;2023-08-30T11:32:38;92985.38;;;27.95;38.02
10518;BME280;5307;42.548;22.968;2023-08-30T11:35:06;92988.03;;;27.49;38.97
10518;BME280;5307;42.548;22.968;2023-08-30T11:37:33;92975.91;;;27.91;38.41
10518;BME280;5307;42.548;22.968;2023-08-30T11:40:01;92975.69;;;28.06;37.08
10518;BME280;5307;42.548;22.968;2023-08-30T11:42:31;92958.31;;;28.17;38.10
10518;BME280;5307;42.548;22.968;2023-08-30T11:44:58;92969.22;;;28.13;37.29
10518;BME280;5307;42.548;22.968;2023-08-30T11:47:26;92968.47;;;28.39;37.09
10518;BME280;5307;42.548;22.968;2023-08-30T11:49:54;92962.41;;;27.79;35.09
10518;BME280;5307;42.548;22.968;2023-08-30T11:52:23;92961.50;;;28.31;36.69
10518;BME280;5307;42.548;22.968;2023-08-30T11:54:51;92966.91;;;27.92;35.87
10518;BME280;5307;42.548;22.968;2023-08-30T11:57:18;92975.22;;;27.56;35.85
10518;BME280;5307;42.548;22.968;2023-08-30T11:59:47;92959.13;;;27.56;35.52
10518;BME280;5307;42.548;22.968;2023-08-30T12:02:16;92969.19;;;28.30;37.97
10518;BME280;5307;42.548;22.968;2023-08-30T12:04:45;92966.53;;;28.05;36.13
10518;BME280;5307;42.548;22.968;2023-08-30T12:07:21;92964.47;;;27.79;35.53
10518;BME280;5307;42.548;22.968;2023-08-30T12:09:48;92953.50;;;27.56;35.78
10518;BME280;5307;42.548;22.968;2023-08-30T12:12:14;92955.03;;;27.84;35.79
10518;BME280;5307;42.548;22.968;2023-08-30T12:14:41;92956.47;;;28.39;37.86
10518;BME280;5307;42.548;22.968;2023-08-30T12:17:10;92958.91;;;28.25;36.55
10518;BME280;5307;42.548;22.968;2023-08-30T12:19:37;92956.38;;;28.56;37.86
10518;BME280;5307;42.548;22.968;2023-08-30T12:22:06;92941.53;;;28.36;36.31
10518;BME280;5307;42.548;22.968;2023-08-30T12:24:43;92953.97;;;28.33;36.34
10518;BME280;5307;42.548;22.968;2023-08-30T12:27:10;92943.84;;;28.21;35.87
10518;BME280;5307;42.548;22.968;2023-08-30T12:29:38;92955.22;;;28.23;36.32
10518;BME280;5307;42.548;22.968;2023-08-30T12:32:05;92937.72;;;28.15;37.12
10518;BME280;5307;42.548;22.968;2023-08-30T12:34:34;92955.31;;;28.15;37.14
10518;BME280;5307;42.548;22.968;2023-08-30T12:37:01;92937.25;;;27.72;37.86
10518;BME280;5307;42.548;22.968;2023-08-30T12:39:28;92952.94;;;28.02;36.23
10518;BME280;5307;42.548;22.968;2023-08-30T12:41:55;92951.03;;;27.77;35.85
10518;BME280;5307;42.548;22.968;2023-08-30T12:44:23;92946.13;;;28.05;36.44
10518;BME280;5307;42.548;22.968;2023-08-30T12:46:50;92939.34;;;28.08;36.04
10518;BME280;5307;42.548;22.968;2023-08-30T12:49:16;92929.88;;;28.30;35.16
10518;BME280;5307;42.548;22.968;2023-08-30T12:51:45;92925.53;;;27.93;34.00
10518;BME280;5307;42.548;22.968;2023-08-30T12:54:11;92934.91;;;28.05;34.29
10518;BME280;5307;42.548;22.968;2023-08-30T12:56:38;92931.56;;;28.16;34.49
10518;BME280;5307;42.548;22.968;2023-08-30T12:59:05;92930.78;;;28.06;34.10